sensor_id;sensor_type;location;lat;lon;timestamp;P1;durP1;ratioP1;P2;durP2;ratioP2
64932;SDS011;51446;53.850;10.662;2023-02-03T00:00:21;13.53;;;4.70;;
64932;SDS011;51446;53.850;10.662;2023-02-03T00:02:46;13.00;;;5.30;;
64932;SDS011;51446;53.850;10.662;2023-02-03T00:05:12;10.30;;;4.17;;
64932;SDS011;51446;53.850;10.662;2023-02-03T00:07:37;6.73;;;4.23;;
64932;SDS011;51446;53.850;10.662;2023-02-03T00:10:03;10.25;;;4.70;;
64932;SDS011;51446;53.850;10.662;2023-02-03T00:12:29;8.80;;;3.95;;
64932;SDS011;51446;53.850;10.662;2023-02-03T00:14:55;11.17;;;4.03;;
64932;SDS011;51446;53.850;10.662;2023-02-03T00:17:20;8.67;;;4.07;;
64932;SDS011;51446;53.850;10.662;2023-02-03T00:19:45;11.43;;;4.23;;
64932;SDS011;51446;53.850;10.662;2023-02-03T00:22:10;8.47;;;4.20;;
64932;SDS011;51446;53.850;10.662;2023-02-03T00:24:36;6.47;;;4.43;;
64932;SDS011;51446;53.850;10.662;2023-02-03T00:27:01;6.80;;;4.00;;
64932;SDS011;51446;53.850;10.662;2023-02-03T00:29:26;5.60;;;3.57;;
64932;SDS011;51446;53.850;10.662;2023-02-03T00:31:52;5.67;;;3.87;;
64932;SDS011;51446;53.850;10.662;2023-02-03T00:34:18;6.30;;;3.85;;
64932;SDS011;51446;53.850;10.662;2023-02-03T00:36:44;7.20;;;4.13;;
64932;SDS011;51446;53.850;10.662;2023-02-03T00:39:12;6.63;;;3.80;;
64932;SDS011;51446;53.850;10.662;2023-02-03T00:41:37;6.50;;;3.60;;
64932;SDS011;51446;53.850;10.662;2023-02-03T00:44:02;5.60;;;3.57;;
64932;SDS011;51446;53.850;10.662;2023-02-03T00:46:27;6.17;;;4.27;;
64932;SDS011;51446;53.850;10.662;2023-02-03T00:48:53;6.10;;;3.60;;
64932;SDS011;51446;53.850;10.662;2023-02-03T00:51:18;4.70;;;3.23;;
64932;SDS011;51446;53.850;10.662;2023-02-03T00:53:43;6.97;;;3.67;;
64932;SDS011;51446;53.850;10.662;2023-02-03T00:56:09;9.37;;;3.60;;
64932;SDS011;51446;53.850;10.662;2023-02-03T00:58:37;8.30;;;3.58;;
64932;SDS011;51446;53.850;10.662;2023-02-03T01:01:04;8.02;;;3.38;;
64932;SDS011;51446;53.850;10.662;2023-02-03T01:03:29;7.17;;;3.43;;
64932;SDS011;51446;53.850;10.662;2023-02-03T01:05:54;5.70;;;3.07;;
64932;SDS011;51446;53.850;10.662;2023-02-03T01:08:19;4.23;;;3.07;;
64932;SDS011;51446;53.850;10.662;2023-02-03T01:10:45;3.83;;;3.13;;
64932;SDS011;51446;53.850;10.662;2023-02-03T01:13:10;3.40;;;3.10;;
64932;SDS011;51446;53.850;10.662;2023-02-03T01:15:35;3.93;;;3.27;;
64932;SDS011;51446;53.850;10.662;2023-02-03T01:18:01;3.30;;;3.00;;
64932;SDS011;51446;53.850;10.662;2023-02-03T01:20:26;3.03;;;2.73;;
64932;SDS011;51446;53.850;10.662;2023-02-03T01:22:51;3.30;;;2.80;;
64932;SDS011;51446;53.850;10.662;2023-02-03T01:25:17;3.17;;;2.87;;
64932;SDS011;51446;53.850;10.662;2023-02-03T01:27:42;3.67;;;2.87;;
64932;SDS011;51446;53.850;10.662;2023-02-03T01:30:07;5.27;;;3.23;;
64932;SDS011;51446;53.850;10.662;2023-02-03T01:32:33;3.65;;;3.35;;
64932;SDS011;51446;53.850;10.662;2023-02-03T01:34:58;5.07;;;3.93;;
64932;SDS011;51446;53.850;10.662;2023-02-03T01:37:23;6.17;;;4.13;;
64932;SDS011;51446;53.850;10.662;2023-02-03T01:39:49;5.70;;;4.20;;
64932;SDS011;51446;53.850;10.662;2023-02-03T01:42:14;8.90;;;4.93;;
64932;SDS011;51446;53.850;10.662;2023-02-03T01:44:42;9.20;;;5.47;;
64932;SDS011;51446;53.850;10.662;2023-02-03T01:47:54;7.35;;;5.60;;
64932;SDS011;51446;53.850;10.662;2023-02-03T01:52:42;9.30;;;5.80;;
64932;SDS011;51446;53.850;10.662;2023-02-03T01:55:12;12.30;;;6.53;;
64932;SDS011;51446;53.850;10.662;2023-02-03T02:00:15;17.05;;;7.53;;
64932;SDS011;51446;53.850;10.662;2023-02-03T02:02:42;13.50;;;6.82;;
64932;SDS011;51446;53.850;10.662;2023-02-03T02:07:39;18.25;;;7.55;;
64932;SDS011;51446;53.850;10.662;2023-02-03T02:10:06;16.75;;;7.55;;
64932;SDS011;51446;53.850;10.662;2023-02-03T02:12:32;13.50;;;6.97;;
64932;SDS011;51446;53.850;10.662;2023-02-03T02:14:57;17.30;;;6.97;;
64932;SDS011;51446;53.850;10.662;2023-02-03T02:17:38;21.10;;;6.72;;
64932;SDS011;51446;53.850;10.662;2023-02-03T02:20:23;19.07;;;6.67;;
64932;SDS011;51446;53.850;10.662;2023-02-03T02:28:50;17.05;;;5.53;;
64932;SDS011;51446;53.850;10.662;2023-02-03T02:31:33;14.68;;;5.30;;
64932;SDS011;51446;53.850;10.662;2023-02-03T02:34:26;16.07;;;5.40;;
64932;SDS011;51446;53.850;10.662;2023-02-03T02:37:36;13.27;;;4.30;;
64932;SDS011;51446;53.850;10.662;2023-02-03T02:40:11;16.20;;;4.32;;
64932;SDS011;51446;53.850;10.662;2023-02-03T02:48:58;15.53;;;4.33;;
64932;SDS011;51446;53.850;10.662;2023-02-03T02:51:30;15.05;;;3.63;;
64932;SDS011;51446;53.850;10.662;2023-02-03T02:53:58;18.17;;;4.35;;
64932;SDS011;51446;53.850;10.662;2023-02-03T02:56:26;22.85;;;4.28;;
64932;SDS011;51446;53.850;10.662;2023-02-03T02:58:53;11.63;;;4.10;;
64932;SDS011;51446;53.850;10.662;2023-02-03T03:01:21;13.23;;;4.13;;
64932;SDS011;51446;53.850;10.662;2023-02-03T03:03:46;13.33;;;3.90;;
64932;SDS011;51446;53.850;10.662;2023-02-03T03:06:14;15.98;;;3.90;;
64932;SDS011;51446;53.850;10.662;2023-02-03T03:08:47;11.23;;;3.97;;
64932;SDS011;51446;53.850;10.662;2023-02-03T03:11:19;11.23;;;4.00;;
64932;SDS011;51446;53.850;10.662;2023-02-03T03:13:49;17.58;;;4.50;;
64932;SDS011;51446;53.850;10.662;2023-02-03T03:16:19;16.08;;;3.92;;
64932;SDS011;51446;53.850;10.662;2023-02-03T03:18:49;9.17;;;3.40;;
64932;SDS011;51446;53.850;10.662;2023-02-03T03:21:22;13.20;;;4.18;;
64932;SDS011;51446;53.850;10.662;2023-02-03T03:23:52;9.90;;;3.70;;
64932;SDS011;51446;53.850;10.662;2023-02-03T03:26:26;9.55;;;3.75;;
64932;SDS011;51446;53.850;10.662;2023-02-03T03:28:59;8.35;;;3.40;;
64932;SDS011;51446;53.850;10.662;2023-02-03T03:31:31;13.17;;;3.93;;
64932;SDS011;51446;53.850;10.662;2023-02-03T03:33:56;10.18;;;3.50;;
64932;SDS011;51446;53.850;10.662;2023-02-03T03:36:26;14.18;;;3.90;;
64932;SDS011;51446;53.850;10.662;2023-02-03T03:39:05;16.13;;;4.00;;
64932;SDS011;51446;53.850;10.662;2023-02-03T03:42:00;11.38;;;3.95;;
64932;SDS011;51446;53.850;10.662;2023-02-03T03:44:28;13.90;;;3.90;;
64932;SDS011;51446;53.850;10.662;2023-02-03T03:47:09;17.23;;;3.90;;
64932;SDS011;51446;53.850;10.662;2023-02-03T03:49:41;15.85;;;3.63;;
64932;SDS011;51446;53.850;10.662;2023-02-03T03:52:09;15.90;;;4.30;;
64932;SDS011;51446;53.850;10.662;2023-02-03T03:54:38;14.40;;;4.47;;
64932;SDS011;51446;53.850;10.662;2023-02-03T03:57:14;15.85;;;3.55;;
64932;SDS011;51446;53.850;10.662;2023-02-03T03:59:46;17.38;;;3.78;;
64932;SDS011;51446;53.850;10.662;2023-02-03T04:02:13;11.30;;;3.50;;
64932;SDS011;51446;53.850;10.662;2023-02-03T04:04:40;14.93;;;3.67;;
64932;SDS011;51446;53.850;10.662;2023-02-03T04:07:07;20.73;;;3.90;;
64932;SDS011;51446;53.850;10.662;2023-02-03T04:09:32;15.00;;;3.40;;
64932;SDS011;51446;53.850;10.662;2023-02-03T04:12:00;8.80;;;3.20;;
64932;SDS011;51446;53.850;10.662;2023-02-03T04:14:26;10.97;;;4.83;;
64932;SDS011;51446;53.850;10.662;2023-02-03T04:16:55;15.80;;;4.13;;
64932;SDS011;51446;53.850;10.662;2023-02-03T04:19:21;16.70;;;3.65;;
64932;SDS011;51446;53.850;10.662;2023-02-03T04:21:47;9.87;;;3.67;;
64932;SDS011;51446;53.850;10.662;2023-02-03T04:24:12;11.60;;;3.77;;
64932;SDS011;51446;53.850;10.662;2023-02-03T04:26:37;13.10;;;3.73;;
64932;SDS011;51446;53.850;10.662;2023-02-03T04:29:03;13.88;;;3.20;;
64932;SDS011;51446;53.850;10.662;2023-02-03T04:31:28;17.20;;;4.00;;
64932;SDS011;51446;53.850;10.662;2023-02-03T04:33:53;11.63;;;3.77;;
64932;SDS011;51446;53.850;10.662;2023-02-03T04:36:19;7.07;;;3.10;;
64932;SDS011;51446;53.850;10.662;2023-02-03T04:38:44;10.67;;;3.43;;
64932;SDS011;51446;53.850;10.662;2023-02-03T04:41:09;14.13;;;3.90;;
64932;SDS011;51446;53.850;10.662;2023-02-03T04:43:35;8.43;;;3.27;;
64932;SDS011;51446;53.850;10.662;2023-02-03T04:46:00;15.87;;;3.40;;
64932;SDS011;51446;53.850;10.662;2023-02-03T04:48:25;11.90;;;3.03;;
64932;SDS011;51446;53.850;10.662;2023-02-03T04:50:51;6.95;;;2.88;;
64932;SDS011;51446;53.850;10.662;2023-02-03T04:53:16;10.30;;;3.23;;
64932;SDS011;51446;53.850;10.662;2023-02-03T04:55:45;11.63;;;3.73;;
64932;SDS011;51446;53.850;10.662;2023-02-03T04:58:11;15.80;;;4.10;;
64932;SDS011;51446;53.850;10.662;2023-02-03T05:00:37;16.38;;;3.70;;
64932;SDS011;51446;53.850;10.662;2023-02-03T05:03:02;12.40;;;3.85;;
64932;SDS011;51446;53.850;10.662;2023-02-03T05:05:27;10.82;;;3.67;;
64932;SDS011;51446;53.850;10.662;2023-02-03T05:07:52;10.13;;;3.70;;
64932;SDS011;51446;53.850;10.662;2023-02-03T05:10:18;9.07;;;3.43;;
64932;SDS011;51446;53.850;10.662;2023-02-03T05:12:43;12.80;;;3.80;;
64932;SDS011;51446;53.850;10.662;2023-02-03T05:15:08;9.03;;;3.43;;
64932;SDS011;51446;53.850;10.662;2023-02-03T05:17:34;10.47;;;3.40;;
64932;SDS011;51446;53.850;10.662;2023-02-03T05:20:02;9.38;;;3.33;;
64932;SDS011;51446;53.850;10.662;2023-02-03T05:22:28;9.38;;;3.45;;
64932;SDS011;51446;53.850;10.662;2023-02-03T05:24:54;9.83;;;3.17;;
64932;SDS011;51446;53.850;10.662;2023-02-03T05:27:19;9.30;;;3.67;;
64932;SDS011;51446;53.850;10.662;2023-02-03T05:29:44;13.97;;;4.10;;
64932;SDS011;51446;53.850;10.662;2023-02-03T05:32:10;12.37;;;4.17;;
64932;SDS011;51446;53.850;10.662;2023-02-03T05:34:35;10.60;;;3.30;;
64932;SDS011;51446;53.850;10.662;2023-02-03T05:37:00;10.67;;;3.97;;
64932;SDS011;51446;53.850;10.662;2023-02-03T05:39:25;9.93;;;4.03;;
64932;SDS011;51446;53.850;10.662;2023-02-03T05:41:50;8.83;;;3.17;;
64932;SDS011;51446;53.850;10.662;2023-02-03T05:44:16;7.60;;;2.70;;
64932;SDS011;51446;53.850;10.662;2023-02-03T05:46:41;12.57;;;3.47;;
64932;SDS011;51446;53.850;10.662;2023-02-03T05:49:07;7.57;;;3.40;;
64932;SDS011;51446;53.850;10.662;2023-02-03T05:51:32;6.83;;;2.90;;
64932;SDS011;51446;53.850;10.662;2023-02-03T05:53:57;6.87;;;2.97;;
64932;SDS011;51446;53.850;10.662;2023-02-03T05:56:22;8.57;;;2.90;;
64932;SDS011;51446;53.850;10.662;2023-02-03T05:58:48;10.23;;;2.80;;
64932;SDS011;51446;53.850;10.662;2023-02-03T06:01:17;11.10;;;2.78;;
64932;SDS011;51446;53.850;10.662;2023-02-03T06:03:43;9.05;;;3.10;;
64932;SDS011;51446;53.850;10.662;2023-02-03T06:06:08;6.77;;;2.63;;
64932;SDS011;51446;53.850;10.662;2023-02-03T06:08:33;7.07;;;2.50;;
64932;SDS011;51446;53.850;10.662;2023-02-03T06:10:59;8.23;;;2.73;;
64932;SDS011;51446;53.850;10.662;2023-02-03T06:13:24;8.40;;;2.60;;
64932;SDS011;51446;53.850;10.662;2023-02-03T06:15:50;5.43;;;2.42;;
64932;SDS011;51446;53.850;10.662;2023-02-03T06:18:15;5.10;;;2.63;;
64932;SDS011;51446;53.850;10.662;2023-02-03T06:20:40;7.10;;;2.20;;
64932;SDS011;51446;53.850;10.662;2023-02-03T06:23:06;6.93;;;2.27;;
64932;SDS011;51446;53.850;10.662;2023-02-03T06:25:31;5.93;;;2.40;;
64932;SDS011;51446;53.850;10.662;2023-02-03T06:27:57;3.90;;;2.42;;
64932;SDS011;51446;53.850;10.662;2023-02-03T06:30:23;3.03;;;2.22;;
64932;SDS011;51446;53.850;10.662;2023-02-03T06:32:48;5.13;;;3.17;;
64932;SDS011;51446;53.850;10.662;2023-02-03T06:35:14;6.63;;;2.37;;
64932;SDS011;51446;53.850;10.662;2023-02-03T06:37:39;4.87;;;2.20;;
64932;SDS011;51446;53.850;10.662;2023-02-03T06:40:05;3.17;;;2.20;;
64932;SDS011;51446;53.850;10.662;2023-02-03T06:42:31;4.80;;;2.20;;
64932;SDS011;51446;53.850;10.662;2023-02-03T06:44:57;5.25;;;2.50;;
64932;SDS011;51446;53.850;10.662;2023-02-03T06:47:22;9.43;;;2.60;;
64932;SDS011;51446;53.850;10.662;2023-02-03T06:49:47;7.03;;;2.60;;
64932;SDS011;51446;53.850;10.662;2023-02-03T06:52:12;12.13;;;3.17;;
64932;SDS011;51446;53.850;10.662;2023-02-03T06:54:39;10.40;;;3.00;;
64932;SDS011;51446;53.850;10.662;2023-02-03T06:57:05;10.23;;;3.42;;
64932;SDS011;51446;53.850;10.662;2023-02-03T06:59:30;9.77;;;3.33;;
64932;SDS011;51446;53.850;10.662;2023-02-03T07:01:55;11.07;;;3.90;;
64932;SDS011;51446;53.850;10.662;2023-02-03T07:04:21;12.30;;;3.40;;
64932;SDS011;51446;53.850;10.662;2023-02-03T07:06:46;11.55;;;3.08;;
64932;SDS011;51446;53.850;10.662;2023-02-03T07:09:12;11.17;;;3.20;;
64932;SDS011;51446;53.850;10.662;2023-02-03T07:11:37;12.53;;;3.27;;
64932;SDS011;51446;53.850;10.662;2023-02-03T07:14:02;8.80;;;3.37;;
64932;SDS011;51446;53.850;10.662;2023-02-03T07:16:28;21.27;;;3.97;;
64932;SDS011;51446;53.850;10.662;2023-02-03T07:18:53;12.80;;;3.35;;
64932;SDS011;51446;53.850;10.662;2023-02-03T07:21:19;19.30;;;4.03;;
64932;SDS011;51446;53.850;10.662;2023-02-03T07:23:47;18.87;;;3.40;;
64932;SDS011;51446;53.850;10.662;2023-02-03T07:26:13;13.57;;;3.67;;
64932;SDS011;51446;53.850;10.662;2023-02-03T07:28:38;15.27;;;3.60;;
64932;SDS011;51446;53.850;10.662;2023-02-03T07:31:04;15.10;;;4.03;;
64932;SDS011;51446;53.850;10.662;2023-02-03T07:33:30;15.27;;;3.93;;
64932;SDS011;51446;53.850;10.662;2023-02-03T07:35:56;12.45;;;3.20;;
64932;SDS011;51446;53.850;10.662;2023-02-03T07:38:23;16.17;;;2.80;;
64932;SDS011;51446;53.850;10.662;2023-02-03T07:40:50;12.18;;;3.35;;
64932;SDS011;51446;53.850;10.662;2023-02-03T07:43:15;12.43;;;3.30;;
64932;SDS011;51446;53.850;10.662;2023-02-03T07:45:41;10.23;;;3.60;;
64932;SDS011;51446;53.850;10.662;2023-02-03T07:48:06;7.50;;;2.83;;
64932;SDS011;51446;53.850;10.662;2023-02-03T07:50:32;13.27;;;3.37;;
64932;SDS011;51446;53.850;10.662;2023-02-03T07:52:58;13.23;;;3.30;;
64932;SDS011;51446;53.850;10.662;2023-02-03T07:55:24;11.10;;;2.83;;
64932;SDS011;51446;53.850;10.662;2023-02-03T07:57:52;12.45;;;2.58;;
64932;SDS011;51446;53.850;10.662;2023-02-03T08:00:18;14.13;;;3.20;;
64932;SDS011;51446;53.850;10.662;2023-02-03T08:02:44;11.70;;;3.05;;
64932;SDS011;51446;53.850;10.662;2023-02-03T08:05:10;12.55;;;3.20;;
64932;SDS011;51446;53.850;10.662;2023-02-03T08:07:36;15.30;;;3.60;;
64932;SDS011;51446;53.850;10.662;2023-02-03T08:10:02;16.83;;;4.05;;
64932;SDS011;51446;53.850;10.662;2023-02-03T08:12:27;16.10;;;3.00;;
64932;SDS011;51446;53.850;10.662;2023-02-03T08:14:53;14.57;;;3.60;;
64932;SDS011;51446;53.850;10.662;2023-02-03T08:17:18;17.93;;;4.63;;
64932;SDS011;51446;53.850;10.662;2023-02-03T08:19:43;23.27;;;4.40;;
64932;SDS011;51446;53.850;10.662;2023-02-03T08:22:09;15.70;;;3.90;;
64932;SDS011;51446;53.850;10.662;2023-02-03T08:24:39;26.95;;;4.78;;
64932;SDS011;51446;53.850;10.662;2023-02-03T08:27:09;19.92;;;4.43;;
64932;SDS011;51446;53.850;10.662;2023-02-03T08:29:35;17.80;;;4.80;;
64932;SDS011;51446;53.850;10.662;2023-02-03T08:32:00;21.60;;;4.30;;
64932;SDS011;51446;53.850;10.662;2023-02-03T08:34:25;17.40;;;3.70;;
64932;SDS011;51446;53.850;10.662;2023-02-03T08:36:50;17.17;;;4.10;;
64932;SDS011;51446;53.850;10.662;2023-02-03T08:39:16;22.47;;;4.13;;
64932;SDS011;51446;53.850;10.662;2023-02-03T08:41:41;19.03;;;4.13;;
64932;SDS011;51446;53.850;10.662;2023-02-03T08:44:06;19.23;;;3.43;;
64932;SDS011;51446;53.850;10.662;2023-02-03T08:46:32;17.63;;;3.77;;
64932;SDS011;51446;53.850;10.662;2023-02-03T08:48:58;22.20;;;5.45;;
64932;SDS011;51446;53.850;10.662;2023-02-03T08:51:26;19.73;;;3.90;;
64932;SDS011;51446;53.850;10.662;2023-02-03T08:53:52;19.17;;;4.20;;
64932;SDS011;51446;53.850;10.662;2023-02-03T08:56:17;22.63;;;4.60;;
64932;SDS011;51446;53.850;10.662;2023-02-03T08:58:42;28.03;;;4.80;;
64932;SDS011;51446;53.850;10.662;2023-02-03T09:01:12;30.77;;;4.90;;
64932;SDS011;51446;53.850;10.662;2023-02-03T09:03:39;25.60;;;4.25;;
64932;SDS011;51446;53.850;10.662;2023-02-03T09:06:04;22.83;;;4.90;;
64932;SDS011;51446;53.850;10.662;2023-02-03T09:08:30;27.98;;;4.82;;
64932;SDS011;51446;53.850;10.662;2023-02-03T09:10:56;26.43;;;4.57;;
64932;SDS011;51446;53.850;10.662;2023-02-03T09:13:21;29.33;;;5.40;;
64932;SDS011;51446;53.850;10.662;2023-02-03T09:15:47;25.65;;;4.95;;
64932;SDS011;51446;53.850;10.662;2023-02-03T09:18:12;27.42;;;5.50;;
64932;SDS011;51446;53.850;10.662;2023-02-03T09:20:37;34.42;;;6.82;;
64932;SDS011;51446;53.850;10.662;2023-02-03T09:23:03;42.87;;;6.37;;
64932;SDS011;51446;53.850;10.662;2023-02-03T09:25:28;30.70;;;6.00;;
64932;SDS011;51446;53.850;10.662;2023-02-03T09:27:53;35.63;;;6.40;;
64932;SDS011;51446;53.850;10.662;2023-02-03T09:30:18;27.93;;;5.67;;
64932;SDS011;51446;53.850;10.662;2023-02-03T09:32:44;32.73;;;7.03;;
64932;SDS011;51446;53.850;10.662;2023-02-03T09:35:12;39.92;;;7.53;;
64932;SDS011;51446;53.850;10.662;2023-02-03T09:37:38;29.07;;;6.07;;
64932;SDS011;51446;53.850;10.662;2023-02-03T09:40:03;28.70;;;6.63;;
64932;SDS011;51446;53.850;10.662;2023-02-03T09:42:52;25.90;;;6.22;;
64932;SDS011;51446;53.850;10.662;2023-02-03T09:45:27;41.03;;;6.25;;
64932;SDS011;51446;53.850;10.662;2023-02-03T09:47:56;36.30;;;8.10;;
64932;SDS011;51446;53.850;10.662;2023-02-03T09:50:27;38.57;;;7.70;;
64932;SDS011;51446;53.850;10.662;2023-02-03T09:52:55;43.92;;;8.02;;
64932;SDS011;51446;53.850;10.662;2023-02-03T09:58:05;40.60;;;7.13;;
64932;SDS011;51446;53.850;10.662;2023-02-03T10:00:46;42.65;;;6.60;;
64932;SDS011;51446;53.850;10.662;2023-02-03T10:05:56;40.92;;;7.82;;
64932;SDS011;51446;53.850;10.662;2023-02-03T10:08:35;40.35;;;6.88;;
64932;SDS011;51446;53.850;10.662;2023-02-03T10:11:11;45.85;;;6.40;;
64932;SDS011;51446;53.850;10.662;2023-02-03T10:13:43;41.15;;;8.35;;
64932;SDS011;51446;53.850;10.662;2023-02-03T10:19:42;36.47;;;7.93;;
64932;SDS011;51446;53.850;10.662;2023-02-03T10:22:16;35.53;;;6.53;;
64932;SDS011;51446;53.850;10.662;2023-02-03T10:24:50;44.20;;;7.57;;
64932;SDS011;51446;53.850;10.662;2023-02-03T10:27:29;35.78;;;8.13;;
64932;SDS011;51446;53.850;10.662;2023-02-03T10:30:31;44.37;;;7.40;;
64932;SDS011;51446;53.850;10.662;2023-02-03T10:32:56;37.85;;;6.70;;
64932;SDS011;51446;53.850;10.662;2023-02-03T10:35:31;34.25;;;6.88;;
64932;SDS011;51446;53.850;10.662;2023-02-03T10:38:03;35.60;;;6.88;;
64932;SDS011;51446;53.850;10.662;2023-02-03T10:40:33;37.80;;;6.35;;
64932;SDS011;51446;53.850;10.662;2023-02-03T10:42:59;40.10;;;6.47;;
64932;SDS011;51446;53.850;10.662;2023-02-03T10:45:42;44.67;;;6.33;;
64932;SDS011;51446;53.850;10.662;2023-02-03T10:48:10;31.77;;;7.20;;
64932;SDS011;51446;53.850;10.662;2023-02-03T10:50:41;34.30;;;6.90;;
64932;SDS011;51446;53.850;10.662;2023-02-03T10:53:22;38.17;;;6.53;;
64932;SDS011;51446;53.850;10.662;2023-02-03T10:56:00;38.42;;;6.22;;
64932;SDS011;51446;53.850;10.662;2023-02-03T10:58:29;39.40;;;6.13;;
64932;SDS011;51446;53.850;10.662;2023-02-03T11:01:10;31.40;;;6.60;;
64932;SDS011;51446;53.850;10.662;2023-02-03T11:03:40;29.37;;;5.53;;
64932;SDS011;51446;53.850;10.662;2023-02-03T11:06:08;33.60;;;6.07;;
64932;SDS011;51446;53.850;10.662;2023-02-03T11:08:37;33.13;;;6.05;;
64932;SDS011;51446;53.850;10.662;2023-02-03T11:11:06;35.88;;;5.95;;
64932;SDS011;51446;53.850;10.662;2023-02-03T11:13:33;37.95;;;5.32;;
64932;SDS011;51446;53.850;10.662;2023-02-03T11:16:00;41.50;;;7.10;;
64932;SDS011;51446;53.850;10.662;2023-02-03T11:21:45;35.70;;;5.88;;
64932;SDS011;51446;53.850;10.662;2023-02-03T11:26:25;39.63;;;6.20;;
64932;SDS011;51446;53.850;10.662;2023-02-03T11:28:55;25.80;;;5.47;;
64932;SDS011;51446;53.850;10.662;2023-02-03T11:31:24;36.05;;;6.35;;
64932;SDS011;51446;53.850;10.662;2023-02-03T11:36:48;37.47;;;7.15;;
64932;SDS011;51446;53.850;10.662;2023-02-03T11:39:24;35.33;;;6.77;;
64932;SDS011;51446;53.850;10.662;2023-02-03T11:41:52;34.30;;;7.13;;
64932;SDS011;51446;53.850;10.662;2023-02-03T11:44:22;36.42;;;6.18;;
64932;SDS011;51446;53.850;10.662;2023-02-03T11:46:54;32.13;;;7.25;;
64932;SDS011;51446;53.850;10.662;2023-02-03T11:52:34;31.58;;;5.13;;
64932;SDS011;51446;53.850;10.662;2023-02-03T11:58:05;32.38;;;7.13;;
64932;SDS011;51446;53.850;10.662;2023-02-03T12:00:46;30.02;;;5.88;;
64932;SDS011;51446;53.850;10.662;2023-02-03T12:06:46;33.72;;;5.68;;
64932;SDS011;51446;53.850;10.662;2023-02-03T12:12:41;24.73;;;5.85;;
64932;SDS011;51446;53.850;10.662;2023-02-03T12:15:49;31.20;;;5.57;;
64932;SDS011;51446;53.850;10.662;2023-02-03T12:18:26;29.73;;;5.20;;
64932;SDS011;51446;53.850;10.662;2023-02-03T12:21:13;32.97;;;6.20;;
64932;SDS011;51446;53.850;10.662;2023-02-03T12:29:44;31.42;;;6.38;;
64932;SDS011;51446;53.850;10.662;2023-02-03T12:32:19;40.20;;;6.07;;
64932;SDS011;51446;53.850;10.662;2023-02-03T12:34:55;34.72;;;6.18;;
64932;SDS011;51446;53.850;10.662;2023-02-03T12:40:34;27.40;;;5.68;;
64932;SDS011;51446;53.850;10.662;2023-02-03T12:46:09;31.85;;;6.65;;
64932;SDS011;51446;53.850;10.662;2023-02-03T12:48:44;31.52;;;5.35;;
64932;SDS011;51446;53.850;10.662;2023-02-03T12:51:27;28.63;;;5.97;;
64932;SDS011;51446;53.850;10.662;2023-02-03T12:54:09;34.20;;;5.53;;
64932;SDS011;51446;53.850;10.662;2023-02-03T12:56:47;31.20;;;6.13;;
64932;SDS011;51446;53.850;10.662;2023-02-03T12:59:17;27.52;;;5.43;;
64932;SDS011;51446;53.850;10.662;2023-02-03T13:01:48;24.83;;;5.63;;
64932;SDS011;51446;53.850;10.662;2023-02-03T13:04:24;32.03;;;6.68;;
64932;SDS011;51446;53.850;10.662;2023-02-03T13:10:15;33.97;;;7.67;;
64932;SDS011;51446;53.850;10.662;2023-02-03T13:12:48;35.72;;;5.80;;
64932;SDS011;51446;53.850;10.662;2023-02-03T13:15:23;33.65;;;5.68;;
64932;SDS011;51446;53.850;10.662;2023-02-03T13:18:03;30.02;;;6.57;;
64932;SDS011;51446;53.850;10.662;2023-02-03T13:20:39;32.88;;;7.13;;
64932;SDS011;51446;53.850;10.662;2023-02-03T13:23:05;31.03;;;5.80;;
64932;SDS011;51446;53.850;10.662;2023-02-03T13:29:01;31.02;;;6.05;;
64932;SDS011;51446;53.850;10.662;2023-02-03T13:32:06;38.73;;;5.80;;
64932;SDS011;51446;53.850;10.662;2023-02-03T13:38:05;40.05;;;7.60;;
64932;SDS011;51446;53.850;10.662;2023-02-03T13:43:30;32.03;;;5.80;;
64932;SDS011;51446;53.850;10.662;2023-02-03T13:45:58;41.57;;;6.27;;
64932;SDS011;51446;53.850;10.662;2023-02-03T13:48:26;35.38;;;6.82;;
64932;SDS011;51446;53.850;10.662;2023-02-03T13:51:01;35.00;;;6.18;;
64932;SDS011;51446;53.850;10.662;2023-02-03T13:53:34;28.95;;;5.85;;
64932;SDS011;51446;53.850;10.662;2023-02-03T13:56:03;37.78;;;6.53;;
64932;SDS011;51446;53.850;10.662;2023-02-03T13:58:32;34.50;;;6.43;;
64932;SDS011;51446;53.850;10.662;2023-02-03T14:05:54;33.57;;;6.63;;
64932;SDS011;51446;53.850;10.662;2023-02-03T14:11:36;51.38;;;7.97;;
64932;SDS011;51446;53.850;10.662;2023-02-03T14:13:52;27.55;;;5.65;;
64932;SDS011;51446;53.850;10.662;2023-02-03T14:16:23;34.97;;;5.97;;
64932;SDS011;51446;53.850;10.662;2023-02-03T14:18:49;33.90;;;6.20;;
64932;SDS011;51446;53.850;10.662;2023-02-03T14:21:16;38.83;;;6.53;;
64932;SDS011;51446;53.850;10.662;2023-02-03T14:23:46;32.65;;;6.25;;
64932;SDS011;51446;53.850;10.662;2023-02-03T14:26:21;35.92;;;6.70;;
64932;SDS011;51446;53.850;10.662;2023-02-03T14:28:53;38.55;;;6.28;;
64932;SDS011;51446;53.850;10.662;2023-02-03T14:31:22;39.13;;;6.90;;
64932;SDS011;51446;53.850;10.662;2023-02-03T14:33:52;32.25;;;7.03;;
64932;SDS011;51446;53.850;10.662;2023-02-03T14:37:07;27.03;;;5.43;;
64932;SDS011;51446;53.850;10.662;2023-02-03T14:52:40;28.75;;;5.70;;
64932;SDS011;51446;53.850;10.662;2023-02-03T14:55:19;27.15;;;4.53;;
64932;SDS011;51446;53.850;10.662;2023-02-03T14:57:55;34.38;;;5.53;;
64932;SDS011;51446;53.850;10.662;2023-02-03T15:00:27;28.00;;;4.65;;
64932;SDS011;51446;53.850;10.662;2023-02-03T15:05:37;40.63;;;6.80;;
64932;SDS011;51446;53.850;10.662;2023-02-03T15:08:04;36.83;;;5.75;;
64932;SDS011;51446;53.850;10.662;2023-02-03T15:10:56;40.08;;;5.30;;
64932;SDS011;51446;53.850;10.662;2023-02-03T15:13:28;32.03;;;5.93;;
64932;SDS011;51446;53.850;10.662;2023-02-03T15:15:57;33.47;;;6.35;;
64932;SDS011;51446;53.850;10.662;2023-02-03T15:18:30;38.53;;;6.53;;
64932;SDS011;51446;53.850;10.662;2023-02-03T15:20:59;34.78;;;5.93;;
64932;SDS011;51446;53.850;10.662;2023-02-03T15:23:26;40.05;;;7.20;;
64932;SDS011;51446;53.850;10.662;2023-02-03T15:26:00;32.50;;;6.00;;
64932;SDS011;51446;53.850;10.662;2023-02-03T15:28:28;25.67;;;4.80;;
64932;SDS011;51446;53.850;10.662;2023-02-03T15:31:39;32.88;;;5.82;;
64932;SDS011;51446;53.850;10.662;2023-02-03T15:33:46;40.30;;;6.68;;
64932;SDS011;51446;53.850;10.662;2023-02-03T15:36:18;35.63;;;5.53;;
64932;SDS011;51446;53.850;10.662;2023-02-03T15:38:51;34.27;;;6.40;;
64932;SDS011;51446;53.850;10.662;2023-02-03T15:41:24;27.52;;;5.70;;
64932;SDS011;51446;53.850;10.662;2023-02-03T15:43:52;41.58;;;5.75;;
64932;SDS011;51446;53.850;10.662;2023-02-03T15:49:10;34.13;;;6.50;;
64932;SDS011;51446;53.850;10.662;2023-02-03T15:51:45;28.90;;;5.50;;
64932;SDS011;51446;53.850;10.662;2023-02-03T15:54:21;31.90;;;6.75;;
64932;SDS011;51446;53.850;10.662;2023-02-03T15:56:58;37.35;;;5.68;;
64932;SDS011;51446;53.850;10.662;2023-02-03T16:02:18;41.33;;;6.78;;
64932;SDS011;51446;53.850;10.662;2023-02-03T16:04:49;40.37;;;6.63;;
64932;SDS011;51446;53.850;10.662;2023-02-03T16:07:17;42.85;;;6.90;;
64932;SDS011;51446;53.850;10.662;2023-02-03T16:09:45;38.25;;;6.90;;
64932;SDS011;51446;53.850;10.662;2023-02-03T16:12:18;46.97;;;7.80;;
64932;SDS011;51446;53.850;10.662;2023-02-03T16:14:48;45.25;;;6.57;;
64932;SDS011;51446;53.850;10.662;2023-02-03T16:17:21;39.83;;;6.68;;
64932;SDS011;51446;53.850;10.662;2023-02-03T16:22:45;45.50;;;6.90;;